»·PEaware :: N5083S KBOI-KSUN

N5083S :: KBOI-KSUN

FLIGHT INFORMATION

Flight Status: Arrived
Operator: Privately registered:
United States
More flights under this callsign
Pilot: Elmar V. (17985)
Aircraft: BEECH AIRCRAFT BARON
(BE58)
More flights by this aircraft type
Origin: KBOI Boise Air Terminal/Gowen
United States
Destination: KSUN Friedman Meml
United States
More flights between these airports :: More routes between these airports
Route: +BOI3 BOI V253 ALKAL V330 KINZE V484 HLE
File this flight plan on PilotEdge
Remarks: PBN / B2
Altitude:
(Current/Filed)
7,000ft
Speed:
(Current/Filed)
130kts
Departed: 19-Sep-18 11:00 AM
Arrived: 19-Sep-18 11:49 AM
Distance/Time
Traveled:
83nm/0:49
Distance/Time
To Go:
Arrived

Flight Plot

Page will automatically refresh every two minutes.

Flight plan parsing failed; only flown route is shown


Map Options




Map Legend


Flown Route
Filed Route
Departure Airport
Arrival Airport
Navaid (VOR, NDB)
Fix

Horizontal Profiles

Position Reports

Time Latitude Longitude Heading Altitude Ground
Speed
19-Sep-18 10:35 43.564092 -116.235826 175 2872ft 0kts
19-Sep-18 10:36 43.564092 -116.235826 175 2872ft 0kts
19-Sep-18 10:37 43.564092 -116.235826 175 2872ft 0kts
19-Sep-18 10:38 43.564092 -116.235826 175 2872ft 0kts
19-Sep-18 10:39 43.564092 -116.235826 175 2872ft 0kts
19-Sep-18 10:40 43.564092 -116.235826 175 2872ft 0kts
19-Sep-18 10:41 43.564092 -116.235826 175 2872ft 0kts
19-Sep-18 10:42 43.564092 -116.235826 175 2872ft 0kts
19-Sep-18 10:43 43.564092 -116.235826 175 2872ft 0kts
19-Sep-18 10:44 43.564092 -116.235826 175 2872ft 0kts
19-Sep-18 10:45 43.564092 -116.235826 175 2872ft 0kts
19-Sep-18 10:46 43.564092 -116.235826 175 2872ft 0kts
19-Sep-18 10:47 43.564092 -116.235826 175 2872ft 0kts
19-Sep-18 10:48 43.564092 -116.235826 175 2872ft 0kts
19-Sep-18 10:49 43.564092 -116.235826 175 2872ft 0kts
19-Sep-18 10:50 43.564092 -116.235826 175 2872ft 0kts
19-Sep-18 10:51 43.564092 -116.235826 175 2872ft 0kts
19-Sep-18 10:52 43.564092 -116.235826 175 2872ft 0kts
19-Sep-18 10:53 43.564092 -116.235826 175 2872ft 0kts
19-Sep-18 10:54 43.564062 -116.235817 162 2872ft 6kts
19-Sep-18 10:55 43.564918 -116.231532 113 2872ft 17kts
19-Sep-18 10:56 43.562969 -116.225815 114 2872ft 15kts
19-Sep-18 10:57 43.561155 -116.220496 114 2872ft 17kts
19-Sep-18 10:58 43.559233 -116.214871 115 2872ft 15kts
19-Sep-18 10:59 43.557830 -116.210269 62 2872ft 7kts
19-Sep-18 11:00 43.557927 -116.210108 39 2872ft 0kts
19-Sep-18 11:01 43.557998 -116.210037 31 2872ft 5kts
19-Sep-18 11:02 43.563262 -116.223436 292 3068ft 109kts
19-Sep-18 11:03 43.573571 -116.262208 288 4671ft 116kts
19-Sep-18 11:04 43.580046 -116.309028 287 5916ft 133kts
19-Sep-18 11:05 43.588767 -116.359969 283 7013ft 139kts
19-Sep-18 11:06 43.569914 -116.366658 110 8135ft 137kts
19-Sep-18 11:07 43.567523 -116.313920 98 9055ft 140kts
19-Sep-18 11:08 43.566699 -116.260246 102 9936ft 138kts
19-Sep-18 11:09 43.556843 -116.208806 105 10812ft 135kts
19-Sep-18 11:10 43.536488 -116.160514 127 11053ft 163kts
19-Sep-18 11:11 43.510654 -116.121641 131 11068ft 165kts
19-Sep-18 11:12 43.476630 -116.062436 129 11005ft 170kts
19-Sep-18 11:13 43.454340 -116.018290 129 11006ft 171kts
19-Sep-18 11:14 43.426341 -115.966374 131 11053ft 168kts
19-Sep-18 11:15 43.394852 -115.917327 129 10958ft 175kts
19-Sep-18 11:16 43.363072 -115.866282 135 10956ft 183kts
19-Sep-18 11:17 43.327716 -115.817645 135 11046ft 178kts
19-Sep-18 11:18 43.292614 -115.769365 126 11052ft 180kts
19-Sep-18 11:19 43.259673 -115.717816 130 11005ft 183kts
19-Sep-18 11:20 43.231501 -115.661241 128 11071ft 179kts
19-Sep-18 11:21 43.197411 -115.610654 132 11032ft 180kts
19-Sep-18 11:22 43.163926 -115.559179 132 10968ft 183kts
19-Sep-18 11:23 43.132225 -115.504852 131 10931ft 182kts
19-Sep-18 11:24 43.100965 -115.451408 128 10913ft 183kts
19-Sep-18 11:25 43.066718 -115.403053 135 11133ft 174kts
19-Sep-18 11:26 43.036166 -115.348960 122 11066ft 178kts
19-Sep-18 11:27 43.016548 -115.287011 98 11084ft 179kts
19-Sep-18 11:28 43.022777 -115.219889 79 11094ft 180kts
19-Sep-18 11:29 43.029654 -115.151305 82 11029ft 180kts
19-Sep-18 11:30 43.036437 -115.083975 80 11015ft 183kts
19-Sep-18 11:31 43.043539 -115.016262 85 11091ft 179kts
19-Sep-18 11:32 43.048472 -114.948414 72 11029ft 184kts
19-Sep-18 11:33 43.068131 -114.884611 68 10983ft 183kts
19-Sep-18 11:34 43.082432 -114.818439 73 10975ft 181kts
19-Sep-18 11:35 43.101639 -114.754791 63 10942ft 182kts
19-Sep-18 11:36 43.119556 -114.690571 66 10701ft 180kts
19-Sep-18 11:37 43.136958 -114.626814 73 9955ft 175kts
19-Sep-18 11:38 43.151868 -114.564195 68 9256ft 171kts
19-Sep-18 11:39 43.164670 -114.502710 76 8920ft 157kts
19-Sep-18 11:40 43.180499 -114.445453 68 9103ft 168kts
19-Sep-18 11:41 43.194839 -114.385009 75 9265ft 168kts
19-Sep-18 11:42 43.209737 -114.322998 66 9167ft 172kts
19-Sep-18 11:43 43.234821 -114.266112 34 8909ft 176kts
19-Sep-18 11:44 43.278392 -114.237818 17 8794ft 174kts
19-Sep-18 11:45 43.318484 -114.201637 40 8731ft 172kts
19-Sep-18 11:46 43.361715 -114.191383 330 8377ft 180kts
19-Sep-18 11:47 43.403630 -114.223453 333 7952ft 168kts
19-Sep-18 11:48 43.445954 -114.249491 331 7492ft 165kts
19-Sep-18 11:49 43.484724 -114.274913 316 5799ft 137kts
19-Sep-18 11:50 43.508825 -114.300543 319 5320ft 62kts
19-Sep-18 11:51 43.511542 -114.304398 186 5320ft 0kts

Navigation Log

Ident Type
Flight plan parsing failed, navigation log unavailable